EZY18RN EGGW-EGJJ
Flight info
| Callsign | EZY18RN |
|---|---|
| Flight time | 0h 37m |
| Altitude | 23000 |
| Route | RODNI N27 ICTAM Q63 CPT Y321 PEPIS/N0387F220 Q41 SAM N63 LELNA |
| Aircraft | A320/M-SDE3FGHIRWY/LB1 |
Departure
| Time | 2026-05-05 19:59 |
|---|---|
| Airport | London Luton Airport (EGGW) |
Arrival
| Time | 2026-05-05 20:37 |
|---|---|
| Airport | Jersey Airport (EGJJ) |
| Time | Latitude | Longitude | Altitude | Speed | Heading |
|---|---|---|---|---|---|
| 2026-05-05 19:52 | 51.87858 | -0.37895 | 523 ft | 0 kts | 46° |
| 2026-05-05 19:52 | 51.87857 | -0.37896 | 523 ft | 2 kts | 46° |
| 2026-05-05 19:53 | 51.87840 | -0.37924 | 523 ft | 2 kts | 46° |
| 2026-05-05 19:53 | 51.87827 | -0.37952 | 523 ft | 4 kts | 89° |
| 2026-05-05 19:53 | 51.87837 | -0.37980 | 523 ft | 4 kts | 149° |
| 2026-05-05 19:53 | 51.87860 | -0.38001 | 523 ft | 4 kts | 161° |
| 2026-05-05 19:54 | 51.87874 | -0.38007 | 523 ft | 0 kts | 166° |
| 2026-05-05 19:55 | 51.87866 | -0.38004 | 523 ft | 4 kts | 166° |
| 2026-05-05 19:55 | 51.87827 | -0.37965 | 523 ft | 10 kts | 136° |
| 2026-05-05 19:55 | 51.87780 | -0.37846 | 523 ft | 13 kts | 116° |
| 2026-05-05 19:56 | 51.87741 | -0.37712 | 522 ft | 14 kts | 114° |
| 2026-05-05 19:56 | 51.87678 | -0.37517 | 521 ft | 21 kts | 131° |
| 2026-05-05 19:56 | 51.87547 | -0.37478 | 521 ft | 19 kts | 200° |
| 2026-05-05 19:56 | 51.87486 | -0.37641 | 523 ft | 16 kts | 253° |
| 2026-05-05 19:57 | 51.87457 | -0.37803 | 522 ft | 15 kts | 255° |
| 2026-05-05 19:57 | 51.87431 | -0.37946 | 523 ft | 12 kts | 252° |
| 2026-05-05 19:57 | 51.87389 | -0.38045 | 523 ft | 11 kts | 220° |
| 2026-05-05 19:57 | 51.87302 | -0.38110 | 522 ft | 14 kts | 192° |
| 2026-05-05 19:58 | 51.87258 | -0.38032 | 524 ft | 10 kts | 80° |
| 2026-05-05 19:58 | 51.87263 | -0.38004 | 524 ft | 0 kts | 75° |
| 2026-05-05 19:58 | 51.87267 | -0.37982 | 524 ft | 10 kts | 75° |
| 2026-05-05 19:58 | 51.87357 | -0.37460 | 522 ft | 84 kts | 74° |
| 2026-05-05 19:59 | 51.87566 | -0.36252 | 523 ft | 139 kts | 75° |
| 2026-05-05 19:59 | 51.87833 | -0.34726 | 1114 ft | 139 kts | 70° |
| 2026-05-05 19:59 | 51.88107 | -0.33214 | 1809 ft | 144 kts | 71° |
| 2026-05-05 19:59 | 51.88402 | -0.31568 | 2143 ft | 164 kts | 72° |
| 2026-05-05 20:00 | 51.88742 | -0.29663 | 2394 ft | 186 kts | 72° |
| 2026-05-05 20:00 | 51.89124 | -0.27509 | 2672 ft | 212 kts | 74° |
| 2026-05-05 20:00 | 51.89126 | -0.24993 | 3082 ft | 241 kts | 105° |
| 2026-05-05 20:00 | 51.88149 | -0.22693 | 3718 ft | 263 kts | 139° |
| 2026-05-05 20:01 | 51.86444 | -0.21532 | 3971 ft | 273 kts | 174° |
| 2026-05-05 20:01 | 51.84595 | -0.22238 | 4645 ft | 280 kts | 213° |
| 2026-05-05 20:01 | 51.83318 | -0.24489 | 5559 ft | 278 kts | 246° |
| 2026-05-05 20:01 | 51.82738 | -0.27441 | 6522 ft | 276 kts | 261° |
| 2026-05-05 20:02 | 51.82458 | -0.30504 | 7422 ft | 275 kts | 266° |
| 2026-05-05 20:02 | 51.82257 | -0.33588 | 8330 ft | 276 kts | 267° |
| 2026-05-05 20:02 | 51.82036 | -0.36686 | 9220 ft | 279 kts | 265° |
| 2026-05-05 20:02 | 51.81763 | -0.39813 | 10052 ft | 283 kts | 264° |
| 2026-05-05 20:03 | 51.81370 | -0.43039 | 10400 ft | 306 kts | 257° |
| 2026-05-05 20:03 | 51.80792 | -0.46477 | 10655 ft | 327 kts | 258° |
| 2026-05-05 20:03 | 51.80261 | -0.50117 | 11202 ft | 337 kts | 258° |
| 2026-05-05 20:03 | 51.79746 | -0.53836 | 11909 ft | 341 kts | 259° |
| 2026-05-05 20:04 | 51.79223 | -0.57597 | 12641 ft | 345 kts | 258° |
| 2026-05-05 20:04 | 51.78680 | -0.61393 | 13364 ft | 349 kts | 257° |
| 2026-05-05 20:04 | 51.78113 | -0.65227 | 14017 ft | 353 kts | 257° |
| 2026-05-05 20:04 | 51.77525 | -0.69092 | 14669 ft | 356 kts | 257° |
| 2026-05-05 20:05 | 51.76923 | -0.72987 | 15331 ft | 359 kts | 257° |
| 2026-05-05 20:05 | 51.76143 | -0.76831 | 15922 ft | 364 kts | 246° |
| 2026-05-05 20:05 | 51.74885 | -0.80407 | 16526 ft | 368 kts | 234° |
| 2026-05-05 20:05 | 51.73203 | -0.83541 | 17129 ft | 372 kts | 225° |
| 2026-05-05 20:06 | 51.71358 | -0.86498 | 17744 ft | 375 kts | 225° |
| 2026-05-05 20:06 | 51.69497 | -0.89483 | 18329 ft | 379 kts | 225° |
| 2026-05-05 20:06 | 51.67623 | -0.92491 | 18859 ft | 382 kts | 225° |
| 2026-05-05 20:06 | 51.65738 | -0.95515 | 19416 ft | 383 kts | 226° |
| 2026-05-05 20:07 | 51.63844 | -0.98551 | 20003 ft | 385 kts | 225° |
| 2026-05-05 20:07 | 51.61945 | -1.01591 | 20548 ft | 386 kts | 225° |
| 2026-05-05 20:07 | 51.60033 | -1.04652 | 21081 ft | 388 kts | 226° |
| 2026-05-05 20:07 | 51.58113 | -1.07726 | 21602 ft | 391 kts | 226° |
| 2026-05-05 20:08 | 51.56180 | -1.10812 | 22098 ft | 393 kts | 226° |
| 2026-05-05 20:08 | 51.54230 | -1.13916 | 22564 ft | 396 kts | 226° |
| 2026-05-05 20:08 | 51.52254 | -1.17026 | 22910 ft | 399 kts | 223° |
| 2026-05-05 20:08 | 51.49998 | -1.19625 | 22978 ft | 400 kts | 210° |
| 2026-05-05 20:09 | 51.47437 | -1.21364 | 22969 ft | 402 kts | 198° |
| 2026-05-05 20:09 | 51.44695 | -1.22268 | 22971 ft | 404 kts | 188° |
| 2026-05-05 20:09 | 51.41880 | -1.22523 | 22968 ft | 405 kts | 184° |
| 2026-05-05 20:09 | 51.39067 | -1.22739 | 22967 ft | 405 kts | 185° |
| 2026-05-05 20:10 | 51.36251 | -1.22975 | 22969 ft | 405 kts | 185° |
| 2026-05-05 20:10 | 51.33439 | -1.23221 | 22967 ft | 405 kts | 185° |
| 2026-05-05 20:10 | 51.30628 | -1.23470 | 22968 ft | 406 kts | 185° |
| 2026-05-05 20:10 | 51.27801 | -1.23717 | 22970 ft | 407 kts | 185° |
| 2026-05-05 20:11 | 51.25008 | -1.23953 | 22970 ft | 407 kts | 184° |
| 2026-05-05 20:11 | 51.22176 | -1.24184 | 22971 ft | 408 kts | 184° |
| 2026-05-05 20:11 | 51.19358 | -1.24607 | 22970 ft | 406 kts | 192° |
| 2026-05-05 20:11 | 51.16615 | -1.25653 | 22971 ft | 405 kts | 197° |
| 2026-05-05 20:12 | 51.13889 | -1.26810 | 22973 ft | 405 kts | 196° |
| 2026-05-05 20:12 | 51.11162 | -1.27961 | 22975 ft | 405 kts | 196° |
| 2026-05-05 20:12 | 51.08433 | -1.29103 | 22977 ft | 406 kts | 196° |
| 2026-05-05 20:12 | 51.05704 | -1.30243 | 22978 ft | 406 kts | 196° |
| 2026-05-05 20:13 | 51.02976 | -1.31385 | 22981 ft | 405 kts | 196° |
| 2026-05-05 20:13 | 51.00248 | -1.32528 | 22980 ft | 405 kts | 196° |
| 2026-05-05 20:13 | 50.97522 | -1.33670 | 22979 ft | 405 kts | 196° |
| 2026-05-05 20:13 | 50.94859 | -1.35087 | 22976 ft | 403 kts | 205° |
| 2026-05-05 20:14 | 50.92347 | -1.37043 | 22973 ft | 402 kts | 208° |
| 2026-05-05 20:14 | 50.89850 | -1.39043 | 22972 ft | 402 kts | 208° |
| 2026-05-05 20:14 | 50.87353 | -1.41041 | 22974 ft | 402 kts | 208° |
| 2026-05-05 20:14 | 50.84856 | -1.43038 | 22966 ft | 402 kts | 208° |
| 2026-05-05 20:15 | 50.82358 | -1.45030 | 22958 ft | 402 kts | 208° |
| 2026-05-05 20:15 | 50.79860 | -1.47018 | 22953 ft | 402 kts | 208° |
| 2026-05-05 20:15 | 50.77360 | -1.49002 | 22952 ft | 402 kts | 208° |
| 2026-05-05 20:15 | 50.74858 | -1.50981 | 22950 ft | 402 kts | 208° |
| 2026-05-05 20:16 | 50.72361 | -1.52956 | 22955 ft | 402 kts | 208° |
| 2026-05-05 20:16 | 50.69858 | -1.54935 | 22956 ft | 402 kts | 208° |
| 2026-05-05 20:16 | 50.67356 | -1.56916 | 22955 ft | 402 kts | 208° |
| 2026-05-05 20:16 | 50.64853 | -1.58895 | 22955 ft | 402 kts | 208° |
| 2026-05-05 20:17 | 50.62350 | -1.60867 | 22924 ft | 402 kts | 208° |
| 2026-05-05 20:17 | 50.59844 | -1.62842 | 22924 ft | 403 kts | 207° |
| 2026-05-05 20:17 | 50.57367 | -1.64794 | 22924 ft | 404 kts | 207° |
| 2026-05-05 20:17 | 50.54851 | -1.66769 | 22918 ft | 405 kts | 207° |
| 2026-05-05 20:18 | 50.52331 | -1.68745 | 22925 ft | 405 kts | 207° |
| 2026-05-05 20:18 | 50.49810 | -1.70725 | 22936 ft | 405 kts | 207° |
| 2026-05-05 20:18 | 50.47287 | -1.72705 | 22936 ft | 405 kts | 207° |
| 2026-05-05 20:18 | 50.44763 | -1.74684 | 22937 ft | 406 kts | 207° |
| 2026-05-05 20:19 | 50.42237 | -1.76661 | 22937 ft | 406 kts | 207° |
| 2026-05-05 20:19 | 50.39709 | -1.78634 | 22934 ft | 406 kts | 207° |
| 2026-05-05 20:19 | 50.37178 | -1.80606 | 22920 ft | 407 kts | 207° |
| 2026-05-05 20:19 | 50.34640 | -1.82580 | 22921 ft | 408 kts | 207° |
| 2026-05-05 20:20 | 50.32099 | -1.84558 | 22922 ft | 408 kts | 207° |
| 2026-05-05 20:20 | 50.29554 | -1.86535 | 22935 ft | 409 kts | 207° |
| 2026-05-05 20:20 | 50.27012 | -1.88504 | 22938 ft | 409 kts | 207° |
| 2026-05-05 20:20 | 50.24459 | -1.90478 | 22556 ft | 408 kts | 207° |
| 2026-05-05 20:21 | 50.21915 | -1.92443 | 21828 ft | 408 kts | 207° |
| 2026-05-05 20:21 | 50.19376 | -1.94407 | 21220 ft | 406 kts | 207° |
| 2026-05-05 20:21 | 50.16853 | -1.96357 | 20626 ft | 404 kts | 207° |
| 2026-05-05 20:21 | 50.14341 | -1.98298 | 20022 ft | 402 kts | 206° |
| 2026-05-05 20:22 | 50.12681 | -1.99576 | 19646 ft | 400 kts | 206° |
| 2026-05-05 20:22 | 50.10192 | -2.01489 | 19118 ft | 398 kts | 206° |
| 2026-05-05 20:22 | 50.07717 | -2.03386 | 18596 ft | 395 kts | 206° |
| 2026-05-05 20:22 | 50.05257 | -2.05268 | 18076 ft | 393 kts | 206° |
| 2026-05-05 20:23 | 50.02814 | -2.07136 | 17529 ft | 390 kts | 206° |
| 2026-05-05 20:23 | 50.00358 | -2.08878 | 16995 ft | 387 kts | 199° |
| 2026-05-05 20:23 | 49.97752 | -2.09791 | 16473 ft | 383 kts | 185° |
| 2026-05-05 20:23 | 49.95129 | -2.09718 | 15706 ft | 373 kts | 170° |
| 2026-05-05 20:24 | 49.92616 | -2.08946 | 14965 ft | 365 kts | 167° |
| 2026-05-05 20:24 | 49.90151 | -2.08166 | 14237 ft | 358 kts | 167° |
| 2026-05-05 20:24 | 49.87723 | -2.07411 | 13487 ft | 353 kts | 167° |
| 2026-05-05 20:24 | 49.85337 | -2.06676 | 12688 ft | 347 kts | 168° |
| 2026-05-05 20:25 | 49.82979 | -2.05955 | 11904 ft | 342 kts | 168° |
| 2026-05-05 20:25 | 49.80657 | -2.05243 | 11146 ft | 338 kts | 168° |
| 2026-05-05 20:25 | 49.77635 | -2.04318 | 10171 ft | 332 kts | 168° |
| 2026-05-05 20:25 | 49.76107 | -2.03849 | 9666 ft | 330 kts | 168° |
| 2026-05-05 20:26 | 49.73871 | -2.03164 | 8865 ft | 326 kts | 168° |
| 2026-05-05 20:26 | 49.71663 | -2.02488 | 8086 ft | 321 kts | 168° |
| 2026-05-05 20:26 | 49.69511 | -2.01842 | 7334 ft | 317 kts | 169° |
| 2026-05-05 20:26 | 49.67336 | -2.01407 | 6589 ft | 314 kts | 173° |
| 2026-05-05 20:27 | 49.65173 | -2.01152 | 5817 ft | 310 kts | 175° |
| 2026-05-05 20:27 | 49.63036 | -2.00969 | 5158 ft | 303 kts | 176° |
| 2026-05-05 20:27 | 49.61011 | -2.00808 | 4966 ft | 280 kts | 175° |
| 2026-05-05 20:27 | 49.59136 | -2.00644 | 4785 ft | 260 kts | 175° |
| 2026-05-05 20:28 | 49.57378 | -2.00470 | 4663 ft | 248 kts | 174° |
| 2026-05-05 20:28 | 49.55669 | -2.00283 | 4531 ft | 246 kts | 174° |
| 2026-05-05 20:28 | 49.53969 | -2.00085 | 4401 ft | 245 kts | 174° |
| 2026-05-05 20:28 | 49.52273 | -1.99884 | 4270 ft | 244 kts | 174° |
| 2026-05-05 20:29 | 49.50578 | -1.99685 | 4143 ft | 244 kts | 174° |
| 2026-05-05 20:29 | 49.48888 | -1.99488 | 4013 ft | 244 kts | 174° |
| 2026-05-05 20:29 | 49.47198 | -1.99290 | 3885 ft | 244 kts | 174° |
| 2026-05-05 20:29 | 49.45510 | -1.99093 | 3757 ft | 243 kts | 174° |
| 2026-05-05 20:30 | 49.43828 | -1.98898 | 3629 ft | 242 kts | 174° |
| 2026-05-05 20:30 | 49.42148 | -1.98704 | 3502 ft | 242 kts | 174° |
| 2026-05-05 20:30 | 49.40474 | -1.98512 | 3375 ft | 241 kts | 174° |
| 2026-05-05 20:30 | 49.38802 | -1.98320 | 3254 ft | 240 kts | 174° |
| 2026-05-05 20:31 | 49.37141 | -1.98128 | 3121 ft | 240 kts | 174° |
| 2026-05-05 20:31 | 49.35472 | -1.97937 | 2991 ft | 240 kts | 174° |
| 2026-05-05 20:31 | 49.33807 | -1.97746 | 2862 ft | 239 kts | 174° |
| 2026-05-05 20:31 | 49.32149 | -1.97554 | 2737 ft | 238 kts | 174° |
| 2026-05-05 20:32 | 49.30497 | -1.97365 | 2606 ft | 238 kts | 174° |
| 2026-05-05 20:32 | 49.28859 | -1.97179 | 2478 ft | 234 kts | 174° |
| 2026-05-05 20:32 | 49.27261 | -1.96997 | 2321 ft | 227 kts | 173° |
| 2026-05-05 20:32 | 49.25699 | -1.97095 | 2126 ft | 224 kts | 192° |
| 2026-05-05 20:33 | 49.24280 | -1.97958 | 2015 ft | 216 kts | 213° |
| 2026-05-05 20:33 | 49.23188 | -1.99393 | 1993 ft | 195 kts | 232° |
| 2026-05-05 20:33 | 49.22513 | -2.01034 | 1992 ft | 172 kts | 249° |
| 2026-05-05 20:33 | 49.22186 | -2.02699 | 2003 ft | 156 kts | 265° |
| 2026-05-05 20:34 | 49.22050 | -2.04320 | 1988 ft | 152 kts | 267° |
| 2026-05-05 20:34 | 49.21920 | -2.05913 | 1893 ft | 150 kts | 267° |
| 2026-05-05 20:34 | 49.21792 | -2.07477 | 1753 ft | 147 kts | 267° |
| 2026-05-05 20:34 | 49.21665 | -2.09023 | 1568 ft | 146 kts | 267° |
| 2026-05-05 20:35 | 49.21538 | -2.10562 | 1372 ft | 146 kts | 267° |
| 2026-05-05 20:35 | 49.21411 | -2.12112 | 1136 ft | 146 kts | 266° |
| 2026-05-05 20:35 | 49.21279 | -2.13644 | 958 ft | 144 kts | 267° |
| 2026-05-05 20:35 | 49.21170 | -2.15157 | 811 ft | 142 kts | 265° |
| 2026-05-05 20:36 | 49.21038 | -2.16646 | 589 ft | 140 kts | 265° |
| 2026-05-05 20:36 | 49.20918 | -2.18111 | 359 ft | 138 kts | 267° |
| 2026-05-05 20:36 | 49.20803 | -2.19501 | 287 ft | 116 kts | 262° |
| 2026-05-05 20:36 | 49.20731 | -2.20348 | 284 ft | 52 kts | 263° |
| 2026-05-05 20:37 | 49.20707 | -2.20638 | 283 ft | 10 kts | 259° |
| 2026-05-05 20:37 | 49.20665 | -2.20693 | 284 ft | 7 kts | 180° |
| 2026-05-05 20:37 | 49.20635 | -2.20659 | 284 ft | 5 kts | 114° |
| 2026-05-05 20:37 | 49.20628 | -2.20610 | 284 ft | 4 kts | 98° |
| 2026-05-05 20:38 | 49.20624 | -2.20568 | 284 ft | 4 kts | 97° |
| 2026-05-05 20:38 | 49.20613 | -2.20476 | 284 ft | 15 kts | 104° |
| 2026-05-05 20:38 | 49.20581 | -2.20310 | 284 ft | 16 kts | 106° |
| 2026-05-05 20:38 | 49.20554 | -2.20169 | 284 ft | 10 kts | 107° |
| 2026-05-05 20:39 | 49.20538 | -2.20089 | 284 ft | 7 kts | 107° |
| 2026-05-05 20:39 | 49.20524 | -2.20020 | 284 ft | 8 kts | 106° |
| 2026-05-05 20:39 | 49.20545 | -2.19940 | 284 ft | 10 kts | 21° |
| 2026-05-05 20:39 | 49.20602 | -2.19872 | 284 ft | 13 kts | 77° |
| 2026-05-05 20:40 | 49.20614 | -2.19734 | 284 ft | 11 kts | 81° |
| 2026-05-05 20:40 | 49.20591 | -2.19656 | 284 ft | 8 kts | 154° |
| 2026-05-05 20:40 | 49.20568 | -2.19642 | 284 ft | 3 kts | 158° |
| 2026-05-05 20:40 | 49.20565 | -2.19640 | 284 ft | 0 kts | 158° |